Time;durP1;ratioP1;P1;durP2;ratioP2;P2;SDS_P1;SDS_P2;PMS_P1;PMS_P2;Temp;Humidity;BMP_temperature;BMP_pressure;BME280_temperature;BME280_humidity;BME280_pressure;Samples;Min_cycle;Max_cycle;Signal;HPM_P1;HPM_P2
2024/01/26 00:02:28;;;;;;;3.37;3.27;;;17.50;68.80;;;;;;5031477;28;43448;-72
2024/01/26 00:04:57;;;;;;;3.03;2.93;;;17.40;68.90;;;;;;5029515;28;43716;-69
2024/01/26 00:07:25;;;;;;;3.40;3.30;;;17.40;69.20;;;;;;5029298;28;43392;-69
2024/01/26 00:09:55;;;;;;;3.43;3.33;;;17.40;69.10;;;;;;5028988;28;44114;-70
2024/01/26 00:12:23;;;;;;;3.07;2.97;;;17.40;69.20;;;;;;5027604;28;43428;-70
2024/01/26 00:14:53;;;;;;;3.40;3.20;;;17.30;69.20;;;;;;5029119;28;44015;-69
2024/01/26 00:17:21;;;;;;;3.30;3.20;;;17.30;69.20;;;;;;5027555;28;44701;-74
2024/01/26 00:19:49;;;;;;;3.10;3.00;;;17.30;69.30;;;;;;5030191;28;43430;-78
2024/01/26 00:22:18;;;;;;;2.90;2.80;;;17.30;69.50;;;;;;5037629;28;43451;-76
2024/01/26 00:24:46;;;;;;;3.10;3.00;;;17.40;69.50;;;;;;5038343;28;43572;-79
2024/01/26 00:27:15;;;;;;;3.00;2.90;;;17.40;69.10;;;;;;5035364;28;44551;-75
2024/01/26 00:29:43;;;;;;;2.70;2.60;;;17.50;69.00;;;;;;5037116;28;43387;-77
2024/01/26 00:32:12;;;;;;;3.20;3.10;;;17.50;68.90;;;;;;5037537;28;44002;-79
2024/01/26 00:34:40;;;;;;;2.87;2.77;;;17.40;68.90;;;;;;5038260;28;45678;-77
2024/01/26 00:37:08;;;;;;;3.00;2.90;;;17.40;69.10;;;;;;5037148;28;44618;-77
2024/01/26 00:39:36;;;;;;;2.83;2.73;;;17.40;69.00;;;;;;5037354;28;43421;-77
2024/01/26 00:42:05;;;;;;;2.97;2.87;;;17.40;69.00;;;;;;5039723;28;43554;-76
2024/01/26 00:44:36;;;;;;;2.63;2.53;;;17.40;69.10;;;;;;5038534;28;43599;-77
2024/01/26 00:47:05;;;;;;;2.97;2.87;;;17.40;69.20;;;;;;5038391;28;43359;-77
2024/01/26 00:49:33;;;;;;;2.93;2.83;;;17.30;69.30;;;;;;5036866;28;43454;-79
2024/01/26 00:52:15;;;;;;;2.93;2.80;;;17.30;69.40;;;;;;5035984;28;43386;-78
2024/01/26 00:54:43;;;;;;;2.87;2.77;;;17.30;69.40;;;;;;5037223;28;43945;-75
2024/01/26 00:57:11;;;;;;;2.90;2.80;;;17.30;69.30;;;;;;5030829;28;43463;-77
2024/01/26 00:59:41;;;;;;;2.33;2.23;;;17.30;69.40;;;;;;5031658;28;43427;-77
2024/01/26 01:02:09;;;;;;;2.30;2.30;;;17.30;69.40;;;;;;5040185;28;43448;-76
2024/01/26 01:04:37;;;;;;;2.70;2.60;;;17.20;69.40;;;;;;5036452;28;46002;-76
2024/01/26 01:07:05;;;;;;;2.70;2.60;;;17.20;69.60;;;;;;5033266;28;44820;-74
2024/01/26 01:09:34;;;;;;;2.50;2.40;;;17.20;69.50;;;;;;5035274;28;43588;-75
2024/01/26 01:12:02;;;;;;;2.70;2.60;;;17.20;69.50;;;;;;5037548;28;43399;-77
2024/01/26 01:14:31;;;;;;;2.60;2.50;;;17.20;69.50;;;;;;5035688;28;44057;-76
2024/01/26 01:17:00;;;;;;;2.43;2.40;;;17.20;69.60;;;;;;5036530;28;43523;-77
2024/01/26 01:19:28;;;;;;;2.20;2.20;;;17.20;69.60;;;;;;5038601;28;43851;-77
2024/01/26 01:21:56;;;;;;;2.60;2.50;;;17.20;69.70;;;;;;5040946;28;43384;-76
2024/01/26 01:24:25;;;;;;;2.37;2.37;;;17.30;69.60;;;;;;5039151;28;45682;-76
2024/01/26 01:26:56;;;;;;;2.43;2.43;;;17.40;69.40;;;;;;5043110;28;43419;-76
2024/01/26 01:29:24;;;;;;;2.53;2.43;;;17.50;69.00;;;;;;5040857;28;43499;-72
2024/01/26 01:31:52;;;;;;;2.50;2.50;;;17.50;68.70;;;;;;5036566;28;43339;-69
2024/01/26 01:34:23;;;;;;;2.23;2.23;;;17.50;68.70;;;;;;5031549;28;44888;-72
2024/01/26 01:36:51;;;;;;;2.40;2.30;;;17.50;68.90;;;;;;5031716;28;43426;-71
2024/01/26 01:39:22;;;;;;;2.30;2.30;;;17.50;68.90;;;;;;5031329;28;43508;-69
2024/01/26 01:41:50;;;;;;;2.30;2.30;;;17.50;68.90;;;;;;5032586;28;43408;-70
2024/01/26 01:44:18;;;;;;;2.10;2.10;;;17.40;68.80;;;;;;5030168;28;45584;-70
2024/01/26 01:46:46;;;;;;;2.20;2.20;;;17.40;69.00;;;;;;5029850;28;43742;-70
2024/01/26 01:49:14;;;;;;;2.20;2.20;;;17.40;69.10;;;;;;5029623;28;43403;-69
2024/01/26 01:51:47;;;;;;;2.20;2.10;;;17.30;69.30;;;;;;5030912;28;43443;-70
2024/01/26 01:54:15;;;;;;;2.23;2.23;;;17.30;69.30;;;;;;5031240;28;44129;-68
2024/01/26 01:56:43;;;;;;;2.00;2.00;;;17.30;69.30;;;;;;5031601;28;43454;-70
2024/01/26 01:59:14;;;;;;;2.00;2.00;;;17.30;69.30;;;;;;5030182;28;43930;-72
2024/01/26 02:01:42;;;;;;;1.80;1.80;;;17.30;69.40;;;;;;5034728;28;44016;-70
2024/01/26 02:04:10;;;;;;;2.27;2.27;;;17.20;69.40;;;;;;5029495;28;45992;-71
2024/01/26 02:06:38;;;;;;;2.20;2.20;;;17.20;69.50;;;;;;5031239;28;43494;-71
2024/01/26 02:09:08;;;;;;;2.30;2.30;;;17.20;69.60;;;;;;5032170;28;43446;-73
2024/01/26 02:11:36;;;;;;;1.97;1.97;;;17.30;69.40;;;;;;5035475;28;43343;-69
2024/01/26 02:14:04;;;;;;;1.80;1.80;;;17.30;69.20;;;;;;5031358;28;43889;-70
2024/01/26 02:16:31;;;;;;;2.00;2.00;;;17.30;69.20;;;;;;5031527;28;43480;-72
2024/01/26 02:18:59;;;;;;;1.90;1.90;;;17.30;69.20;;;;;;5031367;28;43392;-70
2024/01/26 02:21:27;;;;;;;2.30;2.20;;;17.30;69.30;;;;;;5034330;28;43388;-69
2024/01/26 02:23:57;;;;;;;1.77;1.77;;;17.30;69.50;;;;;;5031059;28;44135;-69
2024/01/26 02:26:25;;;;;;;1.90;1.90;;;17.30;69.40;;;;;;5031091;28;43400;-70
2024/01/26 02:28:53;;;;;;;2.00;2.00;;;17.30;69.40;;;;;;5031320;28;43416;-69
2024/01/26 02:31:21;;;;;;;2.07;2.00;;;17.20;69.30;;;;;;5032861;28;43488;-70
2024/01/26 02:33:49;;;;;;;2.00;2.00;;;17.20;69.40;;;;;;5030937;28;43714;-70
2024/01/26 02:36:17;;;;;;;1.80;1.80;;;17.20;69.50;;;;;;5045490;28;44751;-70
2024/01/26 02:38:46;;;;;;;1.90;1.90;;;17.20;69.60;;;;;;5029535;28;44164;-70
2024/01/26 02:41:16;;;;;;;1.87;1.87;;;17.20;69.50;;;;;;5029348;28;43431;-75
2024/01/26 02:43:44;;;;;;;1.90;1.90;;;17.30;70.00;;;;;;5028423;28;43958;-74
2024/01/26 02:46:12;;;;;;;1.70;1.70;;;17.40;69.00;;;;;;5026983;28;43929;-75
2024/01/26 02:48:40;;;;;;;1.70;1.70;;;17.40;68.90;;;;;;5026746;28;43393;-74
2024/01/26 02:51:11;;;;;;;1.70;1.70;;;17.40;69.00;;;;;;5026890;28;43400;-75
2024/01/26 02:53:40;;;;;;;1.63;1.63;;;17.40;69.20;;;;;;5033332;28;45661;-74
2024/01/26 02:56:08;;;;;;;1.77;1.77;;;17.40;69.20;;;;;;5032644;28;43503;-74
2024/01/26 02:58:38;;;;;;;1.77;1.77;;;17.40;69.10;;;;;;5028544;28;44058;-75
2024/01/26 03:01:06;;;;;;;1.60;1.60;;;17.30;69.10;;;;;;5028465;28;43459;-75
2024/01/26 03:03:34;;;;;;;1.73;1.73;;;17.30;69.20;;;;;;5026994;28;43858;-75
2024/01/26 03:06:03;;;;;;;1.70;1.70;;;17.30;69.30;;;;;;5029591;28;43942;-75
2024/01/26 03:08:31;;;;;;;1.83;1.83;;;17.20;69.40;;;;;;5028840;28;43372;-74
2024/01/26 03:10:59;;;;;;;1.70;1.70;;;17.20;69.40;;;;;;5030081;28;43603;-70
2024/01/26 03:13:27;;;;;;;1.30;1.30;;;17.20;69.40;;;;;;5028140;28;46136;-71
2024/01/26 03:15:57;;;;;;;1.77;1.77;;;17.20;69.40;;;;;;5028930;28;43958;-70
2024/01/26 03:18:25;;;;;;;1.60;1.60;;;17.20;69.50;;;;;;5030056;28;43458;-70
2024/01/26 03:20:53;;;;;;;1.50;1.50;;;17.20;69.60;;;;;;5028917;28;43480;-69
2024/01/26 03:23:21;;;;;;;1.57;1.57;;;17.20;69.60;;;;;;5030816;28;43623;-70
2024/01/26 03:25:49;;;;;;;1.70;1.70;;;17.20;69.70;;;;;;5033423;28;43796;-70
2024/01/26 03:28:17;;;;;;;1.70;1.70;;;17.20;69.60;;;;;;5032215;28;43537;-69
2024/01/26 03:30:45;;;;;;;1.60;1.60;;;17.30;69.30;;;;;;5028489;28;44389;-71
2024/01/26 03:33:18;;;;;;;1.50;1.50;;;17.40;69.10;;;;;;5027710;28;45710;-69
2024/01/26 03:35:46;;;;;;;1.40;1.40;;;17.30;69.10;;;;;;5029949;28;43440;-70
2024/01/26 03:38:14;;;;;;;1.53;1.53;;;17.30;69.20;;;;;;5031250;28;43415;-71
2024/01/26 03:40:42;;;;;;;1.57;1.57;;;17.30;70.10;;;;;;5033686;28;43439;-71
2024/01/26 03:43:11;;;;;;;1.50;1.50;;;17.30;69.30;;;;;;5029849;28;44093;-69
2024/01/26 03:45:39;;;;;;;1.47;1.47;;;17.30;69.30;;;;;;5028264;28;43417;-70
2024/01/26 03:48:07;;;;;;;1.43;1.43;;;17.20;69.40;;;;;;5028230;28;43419;-69
2024/01/26 03:50:37;;;;;;;1.50;1.50;;;17.20;69.40;;;;;;5032943;28;43462;-70
2024/01/26 03:53:05;;;;;;;1.40;1.40;;;17.20;69.50;;;;;;5027425;28;43885;-70
2024/01/26 03:55:33;;;;;;;1.60;1.60;;;17.20;69.70;;;;;;5023190;28;43400;-71
2024/01/26 03:58:01;;;;;;;1.50;1.50;;;17.20;69.60;;;;;;5026748;28;43416;-70
2024/01/26 04:00:29;;;;;;;1.40;1.40;;;17.20;69.60;;;;;;5026193;28;43427;-70
2024/01/26 04:02:57;;;;;;;1.40;1.40;;;17.20;69.60;;;;;;5028301;28;45609;-72
2024/01/26 04:05:26;;;;;;;1.20;1.20;;;17.20;69.60;;;;;;5030821;28;43435;-70
2024/01/26 04:07:55;;;;;;;1.50;1.50;;;17.20;69.80;;;;;;5028573;28;43441;-72
2024/01/26 04:10:26;;;;;;;1.60;1.60;;;17.20;69.90;;;;;;5028505;28;43935;-71
2024/01/26 04:12:54;;;;;;;1.40;1.40;;;17.20;69.80;;;;;;5028292;28;43792;-71
2024/01/26 04:15:22;;;;;;;1.20;1.20;;;17.30;69.50;;;;;;5031689;28;43487;-70
2024/01/26 04:17:50;;;;;;;1.10;1.10;;;17.40;69.20;;;;;;5029306;28;43962;-72
2024/01/26 04:20:18;;;;;;;1.30;1.30;;;17.40;68.90;;;;;;5027570;28;43511;-72
2024/01/26 04:22:46;;;;;;;1.30;1.30;;;17.40;68.90;;;;;;5025788;28;46059;-71
2024/01/26 04:25:16;;;;;;;1.20;1.20;;;17.40;69.00;;;;;;5028358;28;43434;-71
2024/01/26 04:27:44;;;;;;;1.47;1.47;;;17.40;69.10;;;;;;5026696;28;43527;-71
2024/01/26 04:30:14;;;;;;;1.20;1.20;;;17.40;69.10;;;;;;5027099;28;43416;-71
2024/01/26 04:32:43;;;;;;;1.50;1.50;;;17.30;69.00;;;;;;5026856;28;45874;-71
2024/01/26 04:35:12;;;;;;;1.20;1.20;;;17.30;69.10;;;;;;5027105;28;43469;-70
2024/01/26 04:37:40;;;;;;;1.30;1.30;;;17.30;69.20;;;;;;5027529;28;43340;-70
2024/01/26 04:40:08;;;;;;;1.33;1.33;;;17.20;69.20;;;;;;5027558;28;43395;-72
2024/01/26 04:42:38;;;;;;;1.20;1.20;;;17.30;69.50;;;;;;5026670;28;44056;-72
2024/01/26 04:45:06;;;;;;;1.00;1.00;;;17.30;69.30;;;;;;5027139;28;43431;-70
2024/01/26 04:47:34;;;;;;;1.20;1.20;;;17.30;69.40;;;;;;5025788;28;43464;-70
2024/01/26 04:50:03;;;;;;;1.30;1.30;;;17.20;69.30;;;;;;5028713;28;43384;-69
2024/01/26 04:52:31;;;;;;;1.20;1.20;;;17.20;69.40;;;;;;5025513;28;45320;-70
2024/01/26 04:54:59;;;;;;;1.20;1.20;;;17.20;69.50;;;;;;5025904;28;45065;-71
2024/01/26 04:57:27;;;;;;;1.30;1.30;;;17.20;69.70;;;;;;5025682;28;43549;-70
2024/01/26 04:59:57;;;;;;;1.03;1.03;;;17.20;69.50;;;;;;5034110;28;43456;-76
2024/01/26 05:02:25;;;;;;;1.10;1.10;;;17.30;69.30;;;;;;5047409;28;45341;-74
2024/01/26 05:04:53;;;;;;;1.20;1.20;;;17.30;69.10;;;;;;5056359;28;43403;-76
2024/01/26 05:07:21;;;;;;;1.20;1.20;;;17.30;69.20;;;;;;5048985;28;43434;-77
2024/01/26 05:09:49;;;;;;;1.20;1.20;;;17.30;70.00;;;;;;5045645;28;43451;-74
2024/01/26 05:12:17;;;;;;;1.20;1.20;;;17.30;69.40;;;;;;5052901;28;43607;-74
2024/01/26 05:14:45;;;;;;;1.27;1.27;;;17.30;69.30;;;;;;5048958;28;43467;-76
2024/01/26 05:17:15;;;;;;;1.30;1.30;;;17.30;69.30;;;;;;5045838;28;43979;-75
2024/01/26 05:19:43;;;;;;;1.30;1.30;;;17.30;69.40;;;;;;5033552;28;43459;-75
2024/01/26 05:22:11;;;;;;;1.30;1.30;;;17.20;69.40;;;;;;5035658;28;45705;-79
2024/01/26 05:24:40;;;;;;;1.10;1.10;;;17.20;69.40;;;;;;5039233;28;43373;-78
2024/01/26 05:27:08;;;;;;;1.00;1.00;;;17.20;69.60;;;;;;5033736;28;43584;-78
2024/01/26 05:29:37;;;;;;;1.10;1.10;;;17.20;69.50;;;;;;5040472;28;44192;-74
2024/01/26 05:32:07;;;;;;;1.30;1.30;;;17.20;69.40;;;;;;5028238;28;45965;-76
2024/01/26 05:34:37;;;;;;;1.10;1.10;;;17.20;69.40;;;;;;5029184;28;44739;-75
2024/01/26 05:37:05;;;;;;;1.30;1.30;;;17.20;70.10;;;;;;5028233;28;43341;-75
2024/01/26 05:39:33;;;;;;;1.10;1.10;;;17.20;69.50;;;;;;5031825;28;43556;-75
2024/01/26 05:42:03;;;;;;;1.10;1.10;;;17.20;69.70;;;;;;5027731;28;45733;-76
2024/01/26 05:44:31;;;;;;;1.23;1.23;;;17.20;69.60;;;;;;5030765;28;43428;-76
2024/01/26 05:46:59;;;;;;;1.07;1.07;;;17.30;69.40;;;;;;5026635;28;43594;-75
2024/01/26 05:49:27;;;;;;;1.10;1.10;;;17.40;69.10;;;;;;5026600;28;43418;-75
2024/01/26 05:51:57;;;;;;;1.23;1.23;;;17.40;69.00;;;;;;5029679;28;44971;-75
2024/01/26 05:54:25;;;;;;;1.00;1.00;;;17.40;68.80;;;;;;5027960;28;45667;-73
2024/01/26 05:56:53;;;;;;;1.10;1.10;;;17.40;69.00;;;;;;5029283;28;43399;-75
2024/01/26 05:59:21;;;;;;;1.10;1.10;;;17.40;69.10;;;;;;5029673;28;43378;-75
2024/01/26 06:01:49;;;;;;;1.20;1.20;;;17.40;69.10;;;;;;5029288;28;43632;-75
2024/01/26 06:04:18;;;;;;;1.10;1.10;;;17.30;69.00;;;;;;5036609;28;43826;-75
2024/01/26 06:06:46;;;;;;;1.17;1.17;;;17.30;69.20;;;;;;5032663;28;43336;-73
2024/01/26 06:09:15;;;;;;;1.20;1.10;;;17.30;69.30;;;;;;5028700;28;43396;-74
2024/01/26 06:11:44;;;;;;;0.93;0.93;;;17.30;69.40;;;;;;5027438;28;45382;-77
2024/01/26 06:14:12;;;;;;;1.17;1.17;;;17.20;69.50;;;;;;5031004;28;44532;-75
2024/01/26 06:16:40;;;;;;;1.13;1.13;;;17.20;69.30;;;;;;5030495;28;43477;-75
2024/01/26 06:19:08;;;;;;;1.07;1.07;;;17.20;69.40;;;;;;5029400;28;43518;-75
2024/01/26 06:21:36;;;;;;;1.00;1.00;;;17.20;69.50;;;;;;5028643;28;43619;-76
2024/01/26 06:24:05;;;;;;;1.10;1.10;;;17.20;69.50;;;;;;5028853;28;43800;-74
2024/01/26 06:26:34;;;;;;;1.00;1.00;;;17.20;69.60;;;;;;5033587;28;43360;-74
2024/01/26 06:29:03;;;;;;;1.20;1.20;;;17.20;69.70;;;;;;5030398;28;43452;-76
2024/01/26 06:31:31;;;;;;;1.00;1.00;;;17.30;69.60;;;;;;5027184;28;45831;-74
2024/01/26 06:33:59;;;;;;;1.10;1.10;;;17.40;69.30;;;;;;5027228;28;43372;-74
2024/01/26 06:36:27;;;;;;;1.20;1.20;;;17.40;69.00;;;;;;5030454;28;43474;-74
2024/01/26 06:38:56;;;;;;;0.90;0.90;;;17.40;69.00;;;;;;5029387;28;43484;-73
2024/01/26 06:41:24;;;;;;;1.20;1.20;;;17.40;69.10;;;;;;5029773;28;45424;-78
2024/01/26 06:43:53;;;;;;;1.10;1.10;;;17.30;69.20;;;;;;5028661;28;44346;-78
2024/01/26 06:46:22;;;;;;;1.10;1.10;;;17.40;69.20;;;;;;5030538;28;43392;-77
2024/01/26 06:48:51;;;;;;;1.10;1.10;;;17.40;69.10;;;;;;5030255;28;43505;-76
2024/01/26 06:51:22;;;;;;;1.13;1.13;;;17.30;69.10;;;;;;5028305;28;46224;-78
2024/01/26 06:53:50;;;;;;;0.90;0.90;;;17.30;69.20;;;;;;5030141;28;43424;-78
2024/01/26 06:56:18;;;;;;;1.13;1.13;;;17.30;69.30;;;;;;5034430;28;43407;-77
2024/01/26 06:58:46;;;;;;;0.97;0.97;;;17.30;69.50;;;;;;5030140;28;43478;-77
2024/01/26 07:01:16;;;;;;;1.07;1.07;;;17.30;69.50;;;;;;5029861;28;45709;-76
2024/01/26 07:03:44;;;;;;;1.00;1.00;;;17.30;69.40;;;;;;5028104;28;44699;-78
2024/01/26 07:06:13;;;;;;;0.93;0.93;;;17.30;69.50;;;;;;5034976;28;43571;-76
2024/01/26 07:08:41;;;;;;;1.20;1.20;;;17.20;69.40;;;;;;5028760;28;43571;-77
2024/01/26 07:11:13;;;;;;;1.10;1.10;;;17.20;69.50;;;;;;5039650;28;44237;-77
2024/01/26 07:13:41;;;;;;;1.20;1.10;;;17.20;69.60;;;;;;5029158;28;43487;-79
2024/01/26 07:16:09;;;;;;;0.90;0.90;;;17.20;69.70;;;;;;5032969;28;43461;-77
2024/01/26 07:18:39;;;;;;;1.10;1.10;;;17.30;69.60;;;;;;5033060;28;43410;-76
2024/01/26 07:21:08;;;;;;;1.03;1.03;;;17.40;69.30;;;;;;5027982;28;43691;-74
2024/01/26 07:23:36;;;;;;;1.00;1.00;;;17.40;69.10;;;;;;5028007;28;43971;-74
2024/01/26 07:26:09;;;;;;;1.10;1.10;;;17.40;69.10;;;;;;5027933;28;43394;-75
2024/01/26 07:28:38;;;;;;;1.00;1.00;;;17.40;69.20;;;;;;5024032;28;43412;-74
2024/01/26 07:31:06;;;;;;;1.07;1.07;;;17.30;69.30;;;;;;5027583;28;43619;-76
2024/01/26 07:33:34;;;;;;;1.07;1.07;;;17.30;69.20;;;;;;5026735;28;44797;-74
2024/01/26 07:36:04;;;;;;;1.10;1.10;;;17.30;69.20;;;;;;5033059;28;43442;-75
2024/01/26 07:38:32;;;;;;;0.97;0.97;;;17.30;69.20;;;;;;5027122;28;44045;-75
2024/01/26 07:41:00;;;;;;;1.10;1.10;;;17.30;69.30;;;;;;5025703;28;44427;-74
2024/01/26 07:43:28;;;;;;;1.27;1.27;;;17.30;69.40;;;;;;5033317;28;43554;-76
2024/01/26 07:45:56;;;;;;;0.93;0.93;;;17.30;69.60;;;;;;5032970;28;43433;-75
2024/01/26 07:48:24;;;;;;;1.27;1.27;;;17.30;69.50;;;;;;5026689;28;44120;-76
2024/01/26 07:50:53;;;;;;;0.90;0.90;;;17.30;69.50;;;;;;5027452;28;45497;-70
2024/01/26 07:53:22;;;;;;;0.90;0.90;;;17.30;69.60;;;;;;5027354;28;43420;-71
2024/01/26 07:55:50;;;;;;;0.87;0.87;;;17.20;69.50;;;;;;5027668;28;43495;-70
2024/01/26 07:58:18;;;;;;;1.00;1.00;;;17.20;69.50;;;;;;5026817;28;43465;-71
2024/01/26 08:00:47;;;;;;;1.00;1.00;;;17.20;69.70;;;;;;5028731;28;43949;-70
2024/01/26 08:03:15;;;;;;;1.10;1.10;;;17.20;69.70;;;;;;5029626;28;44139;-72
2024/01/26 08:05:44;;;;;;;1.10;1.10;;;17.30;69.50;;;;;;5030687;28;43364;-71
2024/01/26 08:08:12;;;;;;;1.10;1.10;;;17.40;69.20;;;;;;5027224;28;43657;-70
2024/01/26 08:10:41;;;;;;;1.10;1.10;;;17.40;69.00;;;;;;5027481;28;43599;-71
2024/01/26 08:13:12;;;;;;;1.10;1.10;;;17.40;69.00;;;;;;5028061;28;43776;-72
2024/01/26 08:15:42;;;;;;;1.00;1.00;;;17.40;69.10;;;;;;5025066;28;43918;-70
2024/01/26 08:18:11;;;;;;;1.00;1.00;;;17.40;69.20;;;;;;5026143;28;43508;-71
2024/01/26 08:20:39;;;;;;;1.07;1.07;;;17.40;69.10;;;;;;5027336;28;43600;-71
2024/01/26 08:23:07;;;;;;;0.90;0.90;;;17.40;69.20;;;;;;5025767;28;44815;-72
2024/01/26 08:25:35;;;;;;;1.07;1.07;;;17.30;69.20;;;;;;5029979;28;43378;-69
2024/01/26 08:28:06;;;;;;;0.90;0.90;;;17.30;69.30;;;;;;5028211;28;43486;-71
2024/01/26 08:30:35;;;;;;;0.90;0.90;;;17.30;69.40;;;;;;5027080;28;43595;-75
2024/01/26 08:33:03;;;;;;;1.00;1.00;;;17.20;69.60;;;;;;5028158;28;43380;-76
2024/01/26 08:35:32;;;;;;;1.00;1.00;;;17.20;69.40;;;;;;5025293;28;43407;-77
2024/01/26 08:38:03;;;;;;;1.00;1.00;;;17.30;69.50;;;;;;5028010;28;43515;-74
2024/01/26 08:40:31;;;;;;;1.10;1.10;;;17.30;69.50;;;;;;5025549;28;45506;-75
2024/01/26 08:42:59;;;;;;;1.10;1.10;;;17.20;69.50;;;;;;5032372;28;43495;-75
2024/01/26 08:45:29;;;;;;;1.00;1.00;;;17.20;69.60;;;;;;5028295;28;43413;-74
2024/01/26 08:47:57;;;;;;;1.03;1.03;;;17.20;69.70;;;;;;5027288;28;43919;-74
2024/01/26 08:50:25;;;;;;;1.10;1.10;;;17.20;69.70;;;;;;5027979;28;43596;-75
2024/01/26 08:52:53;;;;;;;1.00;1.00;;;17.30;69.50;;;;;;5027220;28;43348;-73
2024/01/26 08:55:24;;;;;;;1.00;1.00;;;17.40;69.30;;;;;;5026790;28;43527;-74
2024/01/26 08:57:53;;;;;;;1.00;1.00;;;17.30;69.20;;;;;;5032852;28;43733;-74
2024/01/26 09:00:23;;;;;;;0.80;0.80;;;17.30;69.20;;;;;;5033920;28;44331;-70
2024/01/26 09:02:53;;;;;;;0.90;0.90;;;17.30;69.30;;;;;;5027518;28;43944;-70
2024/01/26 09:05:21;;;;;;;0.90;0.90;;;17.30;69.40;;;;;;5034257;28;43688;-70
2024/01/26 09:07:49;;;;;;;1.10;1.10;;;17.30;69.30;;;;;;5029588;28;43446;-73
2024/01/26 09:10:19;;;;;;;0.90;0.90;;;17.30;69.30;;;;;;5027477;28;43814;-70
2024/01/26 09:12:47;;;;;;;0.80;0.80;;;17.30;69.40;;;;;;5027209;28;43550;-69
2024/01/26 09:15:15;;;;;;;1.00;1.00;;;17.30;69.50;;;;;;5020972;28;43509;-70
2024/01/26 09:17:43;;;;;;;0.90;0.90;;;17.30;69.60;;;;;;5030204;28;43507;-72
2024/01/26 09:20:14;;;;;;;1.00;1.00;;;17.20;69.60;;;;;;5021706;28;43611;-70
2024/01/26 09:22:42;;;;;;;1.10;1.10;;;17.30;69.70;;;;;;5022136;28;43307;-70
2024/01/26 09:25:10;;;;;;;1.00;1.00;;;17.30;69.40;;;;;;5028866;28;43404;-71
2024/01/26 09:27:38;;;;;;;1.13;1.13;;;17.40;69.20;;;;;;5029611;28;43528;-70
2024/01/26 09:30:08;;;;;;;0.90;0.90;;;17.40;69.20;;;;;;5028635;28;43603;-70
2024/01/26 09:32:36;;;;;;;1.00;1.00;;;17.30;69.20;;;;;;5025773;28;44789;-71
2024/01/26 09:35:04;;;;;;;1.10;1.10;;;17.30;69.30;;;;;;5027451;28;43347;-69
2024/01/26 09:37:34;;;;;;;1.00;1.00;;;17.30;69.50;;;;;;5029372;28;43961;-71
2024/01/26 09:40:02;;;;;;;0.90;0.90;;;17.30;69.30;;;;;;5022741;28;43920;-77
2024/01/26 09:42:30;;;;;;;1.00;1.00;;;17.30;69.40;;;;;;5026171;28;43404;-76
2024/01/26 09:45:01;;;;;;;0.90;0.90;;;17.30;69.50;;;;;;5027159;28;43456;-78
2024/01/26 09:47:30;;;;;;;0.97;0.97;;;17.30;69.50;;;;;;5029729;28;43533;-78
2024/01/26 09:50:00;;;;;;;1.00;1.00;;;17.20;69.60;;;;;;5024368;28;43760;-78
2024/01/26 09:52:28;;;;;;;1.00;1.00;;;17.20;69.70;;;;;;5031008;28;43443;-77
2024/01/26 09:54:59;;;;;;;1.03;1.03;;;17.30;69.70;;;;;;5025463;28;44017;-76
2024/01/26 09:57:27;;;;;;;1.00;1.00;;;17.30;69.30;;;;;;5029676;28;43455;-77
2024/01/26 09:59:55;;;;;;;0.90;0.90;;;17.40;69.20;;;;;;5029628;28;46012;-76
2024/01/26 10:02:23;;;;;;;1.00;1.00;;;17.40;69.10;;;;;;5029071;28;43471;-77
2024/01/26 10:04:51;;;;;;;1.10;1.10;;;17.40;69.20;;;;;;5029442;28;43556;-77
2024/01/26 10:07:21;;;;;;;1.00;1.00;;;17.30;69.90;;;;;;5029253;28;43381;-77
2024/01/26 10:09:49;;;;;;;0.70;0.70;;;17.30;69.30;;;;;;5029219;28;44121;-75
2024/01/26 10:12:22;;;;;;;0.90;0.90;;;17.30;69.30;;;;;;5028314;28;43543;-76
2024/01/26 10:14:50;;;;;;;1.10;1.10;;;17.30;69.30;;;;;;5028608;28;43546;-76
2024/01/26 10:17:19;;;;;;;0.90;0.90;;;17.30;69.40;;;;;;5026522;28;43470;-75
2024/01/26 10:19:49;;;;;;;1.07;1.07;;;17.30;69.50;;;;;;5027377;28;43854;-75
2024/01/26 10:22:17;;;;;;;0.97;0.97;;;17.20;69.50;;;;;;5027563;28;44583;-74
2024/01/26 10:24:45;;;;;;;0.93;0.93;;;17.20;69.70;;;;;;5029984;28;43450;-77
2024/01/26 10:27:14;;;;;;;0.90;0.90;;;17.20;69.60;;;;;;5029533;28;43458;-79
2024/01/26 10:29:43;;;;;;;0.90;0.90;;;17.20;69.60;;;;;;5028724;28;43679;-76
2024/01/26 10:32:11;;;;;;;0.90;0.90;;;17.20;69.60;;;;;;5027137;28;44704;-76
2024/01/26 10:34:39;;;;;;;1.13;1.00;;;17.20;69.60;;;;;;5026434;28;45777;-74
2024/01/26 10:37:08;;;;;;;0.90;0.90;;;17.20;69.70;;;;;;5023572;28;43618;-74
2024/01/26 10:39:37;;;;;;;0.90;0.90;;;17.20;69.90;;;;;;5031427;28;43846;-74
2024/01/26 10:42:06;;;;;;;0.80;0.80;;;17.20;69.80;;;;;;5025962;28;44983;-75
2024/01/26 10:44:37;;;;;;;1.00;1.00;;;17.20;69.80;;;;;;5028657;28;43458;-75
2024/01/26 10:47:08;;;;;;;0.87;0.87;;;17.30;70.00;;;;;;5031396;28;43591;-77
2024/01/26 10:49:37;;;;;;;0.90;0.90;;;17.20;70.00;;;;;;5029319;28;43576;-70
2024/01/26 10:52:06;;;;;;;1.00;1.00;;;17.20;70.00;;;;;;5030001;28;43419;-70
2024/01/26 10:54:34;;;;;;;1.10;1.10;;;17.20;70.20;;;;;;5036449;28;43529;-69
2024/01/26 10:57:02;;;;;;;0.93;0.93;;;17.20;70.30;;;;;;5035903;28;43468;-71
2024/01/26 10:59:31;;;;;;;0.90;0.90;;;17.30;70.20;;;;;;5028053;28;45548;-70
2024/01/26 11:02:01;;;;;;;1.50;1.40;;;17.40;69.80;;;;;;5029172;28;43450;-71
2024/01/26 11:04:31;;;;;;;5.83;3.73;;;17.50;69.60;;;;;;5036096;28;43385;-70
2024/01/26 11:07:00;;;;;;;10.80;5.67;;;17.40;69.50;;;;;;5030916;28;43431;-69
2024/01/26 11:09:32;;;;;;;15.57;7.97;;;17.40;69.60;;;;;;5028107;28;46128;-71
2024/01/26 11:12:01;;;;;;;24.23;11.50;;;17.40;69.80;;;;;;5029402;28;43467;-69
2024/01/26 11:14:30;;;;;;;28.93;13.20;;;17.40;69.60;;;;;;5022256;28;44029;-71
2024/01/26 11:17:09;;;;;;;30.00;15.03;;;17.40;69.80;;;;;;5023378;28;43447;-71
2024/01/26 11:19:38;;;;;;;39.07;18.97;;;17.40;70.00;;;;;;5031393;28;45697;-79
2024/01/26 11:22:07;;;;;;;36.63;18.10;;;17.30;70.70;;;;;;5035610;28;44580;-77
2024/01/26 11:24:35;;;;;;;43.63;19.57;;;17.30;70.00;;;;;;5036685;28;43425;-77
2024/01/26 11:27:04;;;;;;;36.23;18.83;;;17.30;70.20;;;;;;5035744;28;43415;-77
2024/01/26 11:29:33;;;;;;;38.37;19.43;;;17.30;70.10;;;;;;5035054;28;44146;-77
2024/01/26 11:32:01;;;;;;;40.63;19.83;;;17.30;70.20;;;;;;5036195;28;44911;-76
2024/01/26 11:34:29;;;;;;;36.30;19.87;;;17.30;70.30;;;;;;5033960;28;43385;-74
2024/01/26 11:37:10;;;;;;;32.20;18.40;;;17.30;70.30;;;;;;5044897;28;43410;-76
2024/01/26 11:39:38;;;;;;;40.07;18.73;;;17.30;71.10;;;;;;5033610;28;44519;-78
2024/01/26 11:42:08;;;;;;;35.93;18.47;;;17.30;70.50;;;;;;5042548;28;43428;-75
2024/01/26 11:44:40;;;;;;;38.83;18.20;;;17.30;70.30;;;;;;5034849;28;44065;-78
2024/01/26 11:47:09;;;;;;;37.10;19.00;;;17.30;70.30;;;;;;5040002;28;43514;-75
2024/01/26 11:49:37;;;;;;;33.93;17.97;;;17.30;70.30;;;;;;5040716;28;43560;-77
2024/01/26 11:52:07;;;;;;;33.93;17.27;;;17.30;70.30;;;;;;5044438;28;45013;-73
2024/01/26 11:54:35;;;;;;;33.47;17.83;;;17.30;70.30;;;;;;5049588;28;43368;-74
2024/01/26 11:57:06;;;;;;;31.80;16.77;;;17.30;70.50;;;;;;5048363;28;43603;-76
2024/01/26 11:59:35;;;;;;;33.93;16.73;;;17.30;70.40;;;;;;5041668;28;43886;-77
2024/01/26 12:02:04;;;;;;;30.77;15.70;;;17.40;70.10;;;;;;5033633;28;43455;-77
2024/01/26 12:04:33;;;;;;;30.30;15.67;;;17.50;69.70;;;;;;5030951;28;43791;-75
2024/01/26 12:07:02;;;;;;;28.87;14.80;;;17.60;69.40;;;;;;5032054;28;43555;-75
2024/01/26 12:09:32;;;;;;;26.27;15.17;;;17.60;69.30;;;;;;5034835;28;43974;-77
2024/01/26 12:12:06;;;;;;;28.10;14.70;;;17.50;69.40;;;;;;5028046;28;43388;-78
2024/01/26 12:14:37;;;;;;;27.77;15.10;;;17.50;69.50;;;;;;5033526;28;44100;-77
2024/01/26 12:17:07;;;;;;;27.80;14.60;;;17.50;69.60;;;;;;5025010;28;44057;-78
2024/01/26 12:19:35;;;;;;;23.30;13.70;;;17.50;69.70;;;;;;5032495;28;43870;-78
2024/01/26 12:22:06;;;;;;;25.07;13.97;;;17.50;70.00;;;;;;5032489;28;43459;-78
2024/01/26 12:24:36;;;;;;;26.33;14.87;;;17.40;70.00;;;;;;5034306;28;43401;-79
2024/01/26 12:27:05;;;;;;;31.90;16.10;;;17.40;70.10;;;;;;5030961;28;43524;-78
2024/01/26 12:29:33;;;;;;;34.23;17.50;;;17.40;70.30;;;;;;5034568;28;43667;-73
2024/01/26 12:32:05;;;;;;;36.00;18.37;;;17.40;70.30;;;;;;5025772;28;43490;-71
2024/01/26 12:34:34;;;;;;;31.77;18.60;;;17.40;70.40;;;;;;5025887;28;43407;-70
2024/01/26 12:37:02;;;;;;;40.87;19.90;;;17.40;70.40;;;;;;5026271;28;43623;-71
2024/01/26 12:39:31;;;;;;;37.33;18.83;;;17.30;70.70;;;;;;5025718;28;43585;-70
2024/01/26 12:42:00;;;;;;;34.23;18.83;;;17.30;70.90;;;;;;5026735;28;43482;-73
2024/01/26 12:44:29;;;;;;;34.60;18.67;;;17.30;70.70;;;;;;5023217;28;43619;-72
2024/01/26 12:46:57;;;;;;;35.17;18.80;;;17.30;70.60;;;;;;5025537;28;43416;-72
2024/01/26 12:49:25;;;;;;;33.57;18.03;;;17.30;70.70;;;;;;5027489;28;43594;-72
2024/01/26 12:51:54;;;;;;;32.33;18.47;;;17.30;70.70;;;;;;5026132;28;44468;-71